sensor_id;sensor_type;location;lat;lon;timestamp;temperature;humidity
25963;DHT22;13760;52.588;13.406;2023-06-24T00:01:49;16.80;99.90
25963;DHT22;13760;52.588;13.406;2023-06-24T00:04:15;16.80;99.90
25963;DHT22;13760;52.588;13.406;2023-06-24T00:06:44;16.80;99.90
25963;DHT22;13760;52.588;13.406;2023-06-24T00:09:09;16.80;99.90
25963;DHT22;13760;52.588;13.406;2023-06-24T00:11:35;16.80;99.90
25963;DHT22;13760;52.588;13.406;2023-06-24T00:14:00;16.70;99.90
25963;DHT22;13760;52.588;13.406;2023-06-24T00:16:26;16.70;99.90
25963;DHT22;13760;52.588;13.406;2023-06-24T00:18:52;16.70;99.90
25963;DHT22;13760;52.588;13.406;2023-06-24T00:21:18;16.70;99.90
25963;DHT22;13760;52.588;13.406;2023-06-24T00:23:45;16.70;99.90
25963;DHT22;13760;52.588;13.406;2023-06-24T00:26:10;16.70;99.90
25963;DHT22;13760;52.588;13.406;2023-06-24T00:28:36;16.60;99.90
25963;DHT22;13760;52.588;13.406;2023-06-24T00:31:01;16.60;99.90
25963;DHT22;13760;52.588;13.406;2023-06-24T00:33:28;16.50;99.90
25963;DHT22;13760;52.588;13.406;2023-06-24T00:35:53;16.50;99.90
25963;DHT22;13760;52.588;13.406;2023-06-24T00:38:21;16.40;99.90
25963;DHT22;13760;52.588;13.406;2023-06-24T00:40:47;16.40;99.90
25963;DHT22;13760;52.588;13.406;2023-06-24T00:43:13;16.40;99.90
25963;DHT22;13760;52.588;13.406;2023-06-24T00:45:39;16.30;99.90
25963;DHT22;13760;52.588;13.406;2023-06-24T00:48:04;16.30;99.90
25963;DHT22;13760;52.588;13.406;2023-06-24T00:50:30;16.30;99.90
25963;DHT22;13760;52.588;13.406;2023-06-24T00:52:56;16.40;99.90
25963;DHT22;13760;52.588;13.406;2023-06-24T00:55:22;16.40;99.90
25963;DHT22;13760;52.588;13.406;2023-06-24T00:57:51;16.40;99.90
25963;DHT22;13760;52.588;13.406;2023-06-24T01:00:19;16.40;99.90
25963;DHT22;13760;52.588;13.406;2023-06-24T01:02:47;16.40;99.90
25963;DHT22;13760;52.588;13.406;2023-06-24T01:05:13;16.40;99.90
25963;DHT22;13760;52.588;13.406;2023-06-24T01:07:40;16.40;99.90
25963;DHT22;13760;52.588;13.406;2023-06-24T01:10:06;16.40;99.90
25963;DHT22;13760;52.588;13.406;2023-06-24T01:12:38;16.40;99.90
25963;DHT22;13760;52.588;13.406;2023-06-24T01:15:05;16.40;99.90
25963;DHT22;13760;52.588;13.406;2023-06-24T01:17:43;16.40;99.90
25963;DHT22;13760;52.588;13.406;2023-06-24T01:20:11;16.40;99.90
25963;DHT22;13760;52.588;13.406;2023-06-24T01:29:20;16.30;99.90
25963;DHT22;13760;52.588;13.406;2023-06-24T01:32:02;16.30;99.90
25963;DHT22;13760;52.588;13.406;2023-06-24T01:39:56;16.30;99.90
25963;DHT22;13760;52.588;13.406;2023-06-24T01:42:22;16.20;99.90
25963;DHT22;13760;52.588;13.406;2023-06-24T01:44:49;16.20;99.90
25963;DHT22;13760;52.588;13.406;2023-06-24T01:47:21;16.20;99.90
25963;DHT22;13760;52.588;13.406;2023-06-24T01:49:49;16.20;99.90
25963;DHT22;13760;52.588;13.406;2023-06-24T01:52:18;16.10;99.90
25963;DHT22;13760;52.588;13.406;2023-06-24T01:54:47;16.10;99.90
25963;DHT22;13760;52.588;13.406;2023-06-24T01:57:15;16.10;99.90
25963;DHT22;13760;52.588;13.406;2023-06-24T01:59:44;16.10;99.90
25963;DHT22;13760;52.588;13.406;2023-06-24T02:02:11;16.10;99.90
25963;DHT22;13760;52.588;13.406;2023-06-24T02:04:38;16.00;99.90
25963;DHT22;13760;52.588;13.406;2023-06-24T02:07:05;16.00;99.90
25963;DHT22;13760;52.588;13.406;2023-06-24T02:09:33;16.00;99.90
25963;DHT22;13760;52.588;13.406;2023-06-24T02:12:01;16.00;99.90
25963;DHT22;13760;52.588;13.406;2023-06-24T02:14:29;16.00;99.90
25963;DHT22;13760;52.588;13.406;2023-06-24T02:16:56;15.90;99.90
25963;DHT22;13760;52.588;13.406;2023-06-24T02:19:25;15.90;99.90
25963;DHT22;13760;52.588;13.406;2023-06-24T02:21:53;15.90;99.90
25963;DHT22;13760;52.588;13.406;2023-06-24T02:24:19;15.90;99.90
25963;DHT22;13760;52.588;13.406;2023-06-24T02:26:46;15.90;99.90
25963;DHT22;13760;52.588;13.406;2023-06-24T02:29:13;15.90;99.90
25963;DHT22;13760;52.588;13.406;2023-06-24T02:31:39;15.90;99.90
25963;DHT22;13760;52.588;13.406;2023-06-24T02:34:05;15.90;99.90
25963;DHT22;13760;52.588;13.406;2023-06-24T02:36:30;15.90;99.90
25963;DHT22;13760;52.588;13.406;2023-06-24T02:38:56;15.80;99.90
25963;DHT22;13760;52.588;13.406;2023-06-24T02:41:22;15.80;99.90
25963;DHT22;13760;52.588;13.406;2023-06-24T02:43:47;15.80;99.90
25963;DHT22;13760;52.588;13.406;2023-06-24T02:46:14;15.80;99.90
25963;DHT22;13760;52.588;13.406;2023-06-24T02:48:41;15.80;99.90
25963;DHT22;13760;52.588;13.406;2023-06-24T02:51:07;15.80;99.90
25963;DHT22;13760;52.588;13.406;2023-06-24T02:53:36;15.70;99.90
25963;DHT22;13760;52.588;13.406;2023-06-24T02:56:03;15.70;99.90
25963;DHT22;13760;52.588;13.406;2023-06-24T02:58:30;15.70;99.90
25963;DHT22;13760;52.588;13.406;2023-06-24T03:00:59;15.70;99.90
25963;DHT22;13760;52.588;13.406;2023-06-24T03:03:26;15.60;99.90
25963;DHT22;13760;52.588;13.406;2023-06-24T03:05:53;15.60;99.90
25963;DHT22;13760;52.588;13.406;2023-06-24T03:08:19;15.50;99.90
25963;DHT22;13760;52.588;13.406;2023-06-24T03:10:45;15.60;99.90
25963;DHT22;13760;52.588;13.406;2023-06-24T03:13:11;15.50;99.90
25963;DHT22;13760;52.588;13.406;2023-06-24T03:15:36;15.60;99.90
25963;DHT22;13760;52.588;13.406;2023-06-24T03:18:02;15.60;99.90
25963;DHT22;13760;52.588;13.406;2023-06-24T03:20:28;15.60;99.90
25963;DHT22;13760;52.588;13.406;2023-06-24T03:22:53;15.60;99.90
25963;DHT22;13760;52.588;13.406;2023-06-24T03:25:21;15.60;99.90
25963;DHT22;13760;52.588;13.406;2023-06-24T03:27:46;15.60;99.90
25963;DHT22;13760;52.588;13.406;2023-06-24T03:30:12;15.60;99.90
25963;DHT22;13760;52.588;13.406;2023-06-24T03:32:40;15.60;99.90
25963;DHT22;13760;52.588;13.406;2023-06-24T03:35:05;15.60;99.90
25963;DHT22;13760;52.588;13.406;2023-06-24T03:37:32;15.60;99.90
25963;DHT22;13760;52.588;13.406;2023-06-24T03:39:57;15.50;99.90
25963;DHT22;13760;52.588;13.406;2023-06-24T03:42:23;15.50;99.90
25963;DHT22;13760;52.588;13.406;2023-06-24T03:44:49;15.50;99.90
25963;DHT22;13760;52.588;13.406;2023-06-24T03:47:14;15.60;99.90
25963;DHT22;13760;52.588;13.406;2023-06-24T03:49:40;15.50;99.90
25963;DHT22;13760;52.588;13.406;2023-06-24T03:52:05;15.50;99.90
25963;DHT22;13760;52.588;13.406;2023-06-24T03:54:34;15.50;99.90
25963;DHT22;13760;52.588;13.406;2023-06-24T03:56:59;15.50;99.90
25963;DHT22;13760;52.588;13.406;2023-06-24T03:59:25;15.50;99.90
25963;DHT22;13760;52.588;13.406;2023-06-24T04:01:50;15.50;99.90
25963;DHT22;13760;52.588;13.406;2023-06-24T04:04:16;15.50;99.90
25963;DHT22;13760;52.588;13.406;2023-06-24T04:06:42;15.50;99.90
25963;DHT22;13760;52.588;13.406;2023-06-24T04:09:07;15.60;99.90
25963;DHT22;13760;52.588;13.406;2023-06-24T04:11:35;15.60;99.90
25963;DHT22;13760;52.588;13.406;2023-06-24T04:14:01;15.60;99.90
25963;DHT22;13760;52.588;13.406;2023-06-24T04:16:27;15.60;99.90
25963;DHT22;13760;52.588;13.406;2023-06-24T04:18:52;15.60;99.90
25963;DHT22;13760;52.588;13.406;2023-06-24T04:21:18;15.60;99.90
25963;DHT22;13760;52.588;13.406;2023-06-24T04:23:44;15.50;99.90
25963;DHT22;13760;52.588;13.406;2023-06-24T04:26:09;15.50;99.90
25963;DHT22;13760;52.588;13.406;2023-06-24T04:28:35;15.50;99.90
25963;DHT22;13760;52.588;13.406;2023-06-24T04:31:00;15.50;99.90
25963;DHT22;13760;52.588;13.406;2023-06-24T04:33:26;15.50;99.90
25963;DHT22;13760;52.588;13.406;2023-06-24T04:35:51;15.50;99.90
25963;DHT22;13760;52.588;13.406;2023-06-24T04:38:17;15.50;99.90
25963;DHT22;13760;52.588;13.406;2023-06-24T04:40:44;15.50;99.90
25963;DHT22;13760;52.588;13.406;2023-06-24T04:43:10;15.60;99.90
25963;DHT22;13760;52.588;13.406;2023-06-24T04:45:35;15.70;99.90
25963;DHT22;13760;52.588;13.406;2023-06-24T04:48:01;15.70;99.90
25963;DHT22;13760;52.588;13.406;2023-06-24T04:50:26;15.70;99.90
25963;DHT22;13760;52.588;13.406;2023-06-24T04:52:53;15.70;99.90
25963;DHT22;13760;52.588;13.406;2023-06-24T04:55:27;15.80;99.90
25963;DHT22;13760;52.588;13.406;2023-06-24T04:57:55;15.70;99.90
25963;DHT22;13760;52.588;13.406;2023-06-24T05:00:20;15.80;99.90
25963;DHT22;13760;52.588;13.406;2023-06-24T05:02:48;15.80;99.90
25963;DHT22;13760;52.588;13.406;2023-06-24T05:05:13;15.80;99.90
25963;DHT22;13760;52.588;13.406;2023-06-24T05:07:39;15.80;99.90
25963;DHT22;13760;52.588;13.406;2023-06-24T05:10:05;15.80;99.90
25963;DHT22;13760;52.588;13.406;2023-06-24T05:12:31;15.90;99.90
25963;DHT22;13760;52.588;13.406;2023-06-24T05:14:56;15.90;99.90
25963;DHT22;13760;52.588;13.406;2023-06-24T05:17:22;15.90;99.90
25963;DHT22;13760;52.588;13.406;2023-06-24T05:19:47;16.00;99.90
25963;DHT22;13760;52.588;13.406;2023-06-24T05:22:13;16.00;99.90
25963;DHT22;13760;52.588;13.406;2023-06-24T05:24:38;16.00;99.90
25963;DHT22;13760;52.588;13.406;2023-06-24T05:27:06;16.00;99.90
25963;DHT22;13760;52.588;13.406;2023-06-24T05:29:33;16.00;99.90
25963;DHT22;13760;52.588;13.406;2023-06-24T05:31:58;16.10;99.90
25963;DHT22;13760;52.588;13.406;2023-06-24T05:34:25;16.10;99.90
25963;DHT22;13760;52.588;13.406;2023-06-24T05:36:50;16.10;99.90
25963;DHT22;13760;52.588;13.406;2023-06-24T05:39:17;16.20;99.90
25963;DHT22;13760;52.588;13.406;2023-06-24T05:41:42;16.20;99.90
25963;DHT22;13760;52.588;13.406;2023-06-24T05:44:08;16.30;99.90
25963;DHT22;13760;52.588;13.406;2023-06-24T05:46:35;16.30;99.90
25963;DHT22;13760;52.588;13.406;2023-06-24T05:49:01;16.40;99.90
25963;DHT22;13760;52.588;13.406;2023-06-24T05:51:27;16.40;99.90
25963;DHT22;13760;52.588;13.406;2023-06-24T05:53:53;16.40;99.90
25963;DHT22;13760;52.588;13.406;2023-06-24T05:56:20;16.40;99.90
25963;DHT22;13760;52.588;13.406;2023-06-24T05:58:45;16.40;99.90
25963;DHT22;13760;52.588;13.406;2023-06-24T06:01:11;16.40;99.90
25963;DHT22;13760;52.588;13.406;2023-06-24T06:03:36;16.40;99.90
25963;DHT22;13760;52.588;13.406;2023-06-24T06:06:02;16.50;99.90
25963;DHT22;13760;52.588;13.406;2023-06-24T06:08:28;16.60;99.90
25963;DHT22;13760;52.588;13.406;2023-06-24T06:10:53;16.60;99.90
25963;DHT22;13760;52.588;13.406;2023-06-24T06:13:19;16.80;99.90
25963;DHT22;13760;52.588;13.406;2023-06-24T06:15:44;16.80;99.90
25963;DHT22;13760;52.588;13.406;2023-06-24T06:18:12;16.90;99.90
25963;DHT22;13760;52.588;13.406;2023-06-24T06:20:37;16.90;99.90
25963;DHT22;13760;52.588;13.406;2023-06-24T06:23:03;16.90;99.90
25963;DHT22;13760;52.588;13.406;2023-06-24T06:25:28;17.00;99.90
25963;DHT22;13760;52.588;13.406;2023-06-24T06:27:54;17.00;99.90
25963;DHT22;13760;52.588;13.406;2023-06-24T06:30:19;17.10;99.90
25963;DHT22;13760;52.588;13.406;2023-06-24T06:32:45;17.10;99.90
25963;DHT22;13760;52.588;13.406;2023-06-24T06:35:11;17.20;99.90
25963;DHT22;13760;52.588;13.406;2023-06-24T06:37:36;17.20;99.90
25963;DHT22;13760;52.588;13.406;2023-06-24T06:40:02;17.30;99.90
25963;DHT22;13760;52.588;13.406;2023-06-24T06:42:29;17.40;99.90
25963;DHT22;13760;52.588;13.406;2023-06-24T06:44:54;17.50;99.90
25963;DHT22;13760;52.588;13.406;2023-06-24T06:47:20;17.50;99.90
25963;DHT22;13760;52.588;13.406;2023-06-24T06:49:45;17.70;99.90
25963;DHT22;13760;52.588;13.406;2023-06-24T06:52:11;17.80;99.90
25963;DHT22;13760;52.588;13.406;2023-06-24T06:54:36;17.90;99.90
25963;DHT22;13760;52.588;13.406;2023-06-24T06:57:03;18.00;99.90
25963;DHT22;13760;52.588;13.406;2023-06-24T06:59:31;18.20;99.90
25963;DHT22;13760;52.588;13.406;2023-06-24T07:01:57;18.30;99.90
25963;DHT22;13760;52.588;13.406;2023-06-24T07:04:23;18.60;99.90
25963;DHT22;13760;52.588;13.406;2023-06-24T07:06:53;18.70;99.90
25963;DHT22;13760;52.588;13.406;2023-06-24T07:09:20;18.90;99.90
25963;DHT22;13760;52.588;13.406;2023-06-24T07:11:45;19.10;99.90
25963;DHT22;13760;52.588;13.406;2023-06-24T07:14:11;19.30;99.90
25963;DHT22;13760;52.588;13.406;2023-06-24T07:16:36;19.40;99.90
25963;DHT22;13760;52.588;13.406;2023-06-24T07:19:02;19.50;99.90
25963;DHT22;13760;52.588;13.406;2023-06-24T07:21:29;19.70;99.90
25963;DHT22;13760;52.588;13.406;2023-06-24T07:23:56;19.80;99.90
25963;DHT22;13760;52.588;13.406;2023-06-24T07:26:22;20.00;99.90
25963;DHT22;13760;52.588;13.406;2023-06-24T07:28:47;20.10;99.90
25963;DHT22;13760;52.588;13.406;2023-06-24T07:31:13;20.20;99.90
25963;DHT22;13760;52.588;13.406;2023-06-24T07:33:38;20.00;99.90
25963;DHT22;13760;52.588;13.406;2023-06-24T07:36:04;19.80;99.90
25963;DHT22;13760;52.588;13.406;2023-06-24T07:38:30;19.80;99.90
25963;DHT22;13760;52.588;13.406;2023-06-24T07:40:55;19.90;99.90
25963;DHT22;13760;52.588;13.406;2023-06-24T07:43:21;20.00;99.90
25963;DHT22;13760;52.588;13.406;2023-06-24T07:45:46;20.10;99.90
25963;DHT22;13760;52.588;13.406;2023-06-24T07:48:12;20.20;99.90
25963;DHT22;13760;52.588;13.406;2023-06-24T07:50:38;20.40;99.90
25963;DHT22;13760;52.588;13.406;2023-06-24T07:53:04;20.40;99.90
25963;DHT22;13760;52.588;13.406;2023-06-24T07:55:30;20.40;99.90
25963;DHT22;13760;52.588;13.406;2023-06-24T07:57:55;20.40;99.90
25963;DHT22;13760;52.588;13.406;2023-06-24T08:00:21;20.50;99.90
25963;DHT22;13760;52.588;13.406;2023-06-24T08:02:46;20.50;99.90
25963;DHT22;13760;52.588;13.406;2023-06-24T08:05:12;20.50;99.90
25963;DHT22;13760;52.588;13.406;2023-06-24T08:07:38;20.30;99.90
25963;DHT22;13760;52.588;13.406;2023-06-24T08:10:04;20.10;99.90
25963;DHT22;13760;52.588;13.406;2023-06-24T08:12:31;20.10;99.90
25963;DHT22;13760;52.588;13.406;2023-06-24T08:14:56;20.10;99.90
25963;DHT22;13760;52.588;13.406;2023-06-24T08:17:22;20.30;99.90
25963;DHT22;13760;52.588;13.406;2023-06-24T08:19:48;20.40;99.90
25963;DHT22;13760;52.588;13.406;2023-06-24T08:22:14;20.60;99.90
25963;DHT22;13760;52.588;13.406;2023-06-24T08:24:40;20.50;99.90
25963;DHT22;13760;52.588;13.406;2023-06-24T08:27:05;20.40;99.90
25963;DHT22;13760;52.588;13.406;2023-06-24T08:29:31;20.30;99.90
25963;DHT22;13760;52.588;13.406;2023-06-24T08:31:56;20.20;99.90
25963;DHT22;13760;52.588;13.406;2023-06-24T08:34:22;20.30;99.90
25963;DHT22;13760;52.588;13.406;2023-06-24T08:36:47;20.40;99.90
25963;DHT22;13760;52.588;13.406;2023-06-24T08:39:13;20.60;99.90
25963;DHT22;13760;52.588;13.406;2023-06-24T08:41:39;20.80;99.90
25963;DHT22;13760;52.588;13.406;2023-06-24T08:44:04;20.80;99.90
25963;DHT22;13760;52.588;13.406;2023-06-24T08:46:30;20.80;99.90
25963;DHT22;13760;52.588;13.406;2023-06-24T08:51:55;20.80;99.90
25963;DHT22;13760;52.588;13.406;2023-06-24T08:54:23;20.90;99.90
25963;DHT22;13760;52.588;13.406;2023-06-24T08:56:49;21.10;99.90
25963;DHT22;13760;52.588;13.406;2023-06-24T08:59:14;21.20;99.90
25963;DHT22;13760;52.588;13.406;2023-06-24T09:01:45;21.20;99.90
25963;DHT22;13760;52.588;13.406;2023-06-24T09:04:11;21.30;99.90
25963;DHT22;13760;52.588;13.406;2023-06-24T09:06:36;21.40;99.90
25963;DHT22;13760;52.588;13.406;2023-06-24T09:09:02;21.30;99.90
25963;DHT22;13760;52.588;13.406;2023-06-24T09:11:28;21.40;99.90
25963;DHT22;13760;52.588;13.406;2023-06-24T09:13:58;21.20;99.90
25963;DHT22;13760;52.588;13.406;2023-06-24T09:16:24;21.10;99.90
25963;DHT22;13760;52.588;13.406;2023-06-24T09:18:51;21.00;99.90
25963;DHT22;13760;52.588;13.406;2023-06-24T09:21:24;21.10;99.90
25963;DHT22;13760;52.588;13.406;2023-06-24T09:23:56;21.10;99.90
25963;DHT22;13760;52.588;13.406;2023-06-24T09:26:24;21.10;99.90
25963;DHT22;13760;52.588;13.406;2023-06-24T09:28:49;21.00;99.90
25963;DHT22;13760;52.588;13.406;2023-06-24T09:31:15;20.90;99.90
25963;DHT22;13760;52.588;13.406;2023-06-24T09:33:41;20.80;99.90
25963;DHT22;13760;52.588;13.406;2023-06-24T09:36:06;20.90;99.90
25963;DHT22;13760;52.588;13.406;2023-06-24T09:38:37;21.10;99.90
25963;DHT22;13760;52.588;13.406;2023-06-24T09:41:04;21.20;99.90
25963;DHT22;13760;52.588;13.406;2023-06-24T09:43:39;21.30;99.90
25963;DHT22;13760;52.588;13.406;2023-06-24T09:46:08;21.40;99.90
25963;DHT22;13760;52.588;13.406;2023-06-24T09:48:34;21.50;99.90
25963;DHT22;13760;52.588;13.406;2023-06-24T09:51:01;21.50;99.90
25963;DHT22;13760;52.588;13.406;2023-06-24T09:53:31;21.60;99.90
25963;DHT22;13760;52.588;13.406;2023-06-24T09:56:03;21.70;99.90
25963;DHT22;13760;52.588;13.406;2023-06-24T09:58:31;21.80;99.90
25963;DHT22;13760;52.588;13.406;2023-06-24T10:01:02;22.00;99.90
25963;DHT22;13760;52.588;13.406;2023-06-24T10:03:29;22.10;99.90
25963;DHT22;13760;52.588;13.406;2023-06-24T10:05:57;22.10;99.90
25963;DHT22;13760;52.588;13.406;2023-06-24T10:08:23;22.10;99.90
25963;DHT22;13760;52.588;13.406;2023-06-24T10:10:49;22.00;99.90
25963;DHT22;13760;52.588;13.406;2023-06-24T10:13:15;22.10;99.90
25963;DHT22;13760;52.588;13.406;2023-06-24T10:15:40;22.20;99.90
25963;DHT22;13760;52.588;13.406;2023-06-24T10:20:53;22.30;99.90
25963;DHT22;13760;52.588;13.406;2023-06-24T10:23:19;22.40;99.90
25963;DHT22;13760;52.588;13.406;2023-06-24T10:25:47;22.50;99.90
25963;DHT22;13760;52.588;13.406;2023-06-24T10:28:13;22.60;99.90
25963;DHT22;13760;52.588;13.406;2023-06-24T10:30:38;22.60;99.90
25963;DHT22;13760;52.588;13.406;2023-06-24T10:33:04;22.60;99.90
25963;DHT22;13760;52.588;13.406;2023-06-24T10:35:41;22.60;99.90
25963;DHT22;13760;52.588;13.406;2023-06-24T10:38:10;22.60;99.90
25963;DHT22;13760;52.588;13.406;2023-06-24T10:40:43;22.70;99.90
25963;DHT22;13760;52.588;13.406;2023-06-24T10:45:54;22.90;99.90
25963;DHT22;13760;52.588;13.406;2023-06-24T10:48:19;22.80;99.90
25963;DHT22;13760;52.588;13.406;2023-06-24T10:50:46;22.90;99.90
25963;DHT22;13760;52.588;13.406;2023-06-24T10:53:12;22.90;99.90
25963;DHT22;13760;52.588;13.406;2023-06-24T10:55:39;23.00;99.90
25963;DHT22;13760;52.588;13.406;2023-06-24T10:58:12;23.00;99.90
25963;DHT22;13760;52.588;13.406;2023-06-24T11:00:39;23.10;99.90
25963;DHT22;13760;52.588;13.406;2023-06-24T11:03:09;23.20;99.90
25963;DHT22;13760;52.588;13.406;2023-06-24T11:05:40;23.20;99.90
25963;DHT22;13760;52.588;13.406;2023-06-24T11:08:06;23.10;99.90
25963;DHT22;13760;52.588;13.406;2023-06-24T11:10:32;23.20;99.90
25963;DHT22;13760;52.588;13.406;2023-06-24T11:13:05;23.30;99.90
25963;DHT22;13760;52.588;13.406;2023-06-24T11:15:31;23.30;99.90
25963;DHT22;13760;52.588;13.406;2023-06-24T11:17:57;23.40;99.90
25963;DHT22;13760;52.588;13.406;2023-06-24T11:20:22;23.40;99.90
25963;DHT22;13760;52.588;13.406;2023-06-24T11:22:48;23.40;99.90
25963;DHT22;13760;52.588;13.406;2023-06-24T11:25:21;23.40;99.90
25963;DHT22;13760;52.588;13.406;2023-06-24T11:27:47;23.60;99.90
25963;DHT22;13760;52.588;13.406;2023-06-24T11:30:13;23.70;99.90
25963;DHT22;13760;52.588;13.406;2023-06-24T11:32:40;23.80;99.90
25963;DHT22;13760;52.588;13.406;2023-06-24T11:35:08;23.80;99.90
25963;DHT22;13760;52.588;13.406;2023-06-24T11:37:34;23.80;99.90
25963;DHT22;13760;52.588;13.406;2023-06-24T11:40:04;23.70;99.90
25963;DHT22;13760;52.588;13.406;2023-06-24T11:42:31;23.80;99.90
25963;DHT22;13760;52.588;13.406;2023-06-24T11:45:01;23.90;99.90
25963;DHT22;13760;52.588;13.406;2023-06-24T11:47:31;23.90;99.90
25963;DHT22;13760;52.588;13.406;2023-06-24T11:49:58;23.90;99.90
25963;DHT22;13760;52.588;13.406;2023-06-24T11:52:49;23.90;99.90
25963;DHT22;13760;52.588;13.406;2023-06-24T12:00:28;24.00;99.90
25963;DHT22;13760;52.588;13.406;2023-06-24T12:02:58;24.10;99.90
25963;DHT22;13760;52.588;13.406;2023-06-24T12:05:35;24.10;99.90
25963;DHT22;13760;52.588;13.406;2023-06-24T12:08:03;24.10;99.90
25963;DHT22;13760;52.588;13.406;2023-06-24T12:10:30;24.10;99.90
25963;DHT22;13760;52.588;13.406;2023-06-24T12:12:59;24.10;99.90
25963;DHT22;13760;52.588;13.406;2023-06-24T12:15:25;24.20;99.90
25963;DHT22;13760;52.588;13.406;2023-06-24T12:17:51;24.10;99.90
25963;DHT22;13760;52.588;13.406;2023-06-24T12:20:17;24.20;99.90
25963;DHT22;13760;52.588;13.406;2023-06-24T12:22:44;24.30;99.90
25963;DHT22;13760;52.588;13.406;2023-06-24T12:25:11;24.40;99.90
25963;DHT22;13760;52.588;13.406;2023-06-24T12:27:44;24.50;99.90
25963;DHT22;13760;52.588;13.406;2023-06-24T12:30:11;24.60;99.90
25963;DHT22;13760;52.588;13.406;2023-06-24T12:32:37;24.60;99.90
25963;DHT22;13760;52.588;13.406;2023-06-24T12:35:03;24.60;99.90
25963;DHT22;13760;52.588;13.406;2023-06-24T12:37:33;24.50;99.90
25963;DHT22;13760;52.588;13.406;2023-06-24T12:39:59;24.50;99.90
25963;DHT22;13760;52.588;13.406;2023-06-24T12:42:26;24.60;99.90
25963;DHT22;13760;52.588;13.406;2023-06-24T12:44:51;24.60;99.90
25963;DHT22;13760;52.588;13.406;2023-06-24T12:47:17;24.70;99.90
25963;DHT22;13760;52.588;13.406;2023-06-24T12:49:43;24.70;99.90
25963;DHT22;13760;52.588;13.406;2023-06-24T12:52:09;24.80;99.90
25963;DHT22;13760;52.588;13.406;2023-06-24T12:54:34;25.00;99.90
25963;DHT22;13760;52.588;13.406;2023-06-24T12:57:01;25.00;99.90
25963;DHT22;13760;52.588;13.406;2023-06-24T12:59:27;25.10;99.90
25963;DHT22;13760;52.588;13.406;2023-06-24T13:01:52;25.00;99.90
25963;DHT22;13760;52.588;13.406;2023-06-24T13:04:18;25.00;99.90
25963;DHT22;13760;52.588;13.406;2023-06-24T13:06:45;25.00;98.90
25963;DHT22;13760;52.588;13.406;2023-06-24T13:09:11;24.90;99.90
25963;DHT22;13760;52.588;13.406;2023-06-24T13:11:37;24.90;99.10
25963;DHT22;13760;52.588;13.406;2023-06-24T13:14:03;24.90;99.90
25963;DHT22;13760;52.588;13.406;2023-06-24T13:16:29;24.90;99.90
25963;DHT22;13760;52.588;13.406;2023-06-24T13:18:54;25.00;99.90
25963;DHT22;13760;52.588;13.406;2023-06-24T13:21:20;25.00;99.90
25963;DHT22;13760;52.588;13.406;2023-06-24T13:23:46;25.00;98.80
25963;DHT22;13760;52.588;13.406;2023-06-24T13:26:12;25.10;99.90
25963;DHT22;13760;52.588;13.406;2023-06-24T13:28:37;25.00;99.90
25963;DHT22;13760;52.588;13.406;2023-06-24T13:31:03;25.10;99.50
25963;DHT22;13760;52.588;13.406;2023-06-24T13:33:28;25.10;99.90
25963;DHT22;13760;52.588;13.406;2023-06-24T13:35:55;25.20;99.90
25963;DHT22;13760;52.588;13.406;2023-06-24T13:38:21;25.30;99.90
25963;DHT22;13760;52.588;13.406;2023-06-24T13:40:47;25.30;99.90
25963;DHT22;13760;52.588;13.406;2023-06-24T13:43:12;25.30;99.90
25963;DHT22;13760;52.588;13.406;2023-06-24T13:45:38;25.50;99.90
25963;DHT22;13760;52.588;13.406;2023-06-24T13:48:04;25.70;98.20
25963;DHT22;13760;52.588;13.406;2023-06-24T13:50:29;25.80;98.30
25963;DHT22;13760;52.588;13.406;2023-06-24T13:52:56;25.90;98.50
25963;DHT22;13760;52.588;13.406;2023-06-24T13:55:21;25.90;99.60
25963;DHT22;13760;52.588;13.406;2023-06-24T13:57:47;26.00;97.90
25963;DHT22;13760;52.588;13.406;2023-06-24T14:00:13;26.00;98.50
25963;DHT22;13760;52.588;13.406;2023-06-24T14:02:40;26.00;97.70
25963;DHT22;13760;52.588;13.406;2023-06-24T14:05:06;26.00;96.80
25963;DHT22;13760;52.588;13.406;2023-06-24T14:07:31;26.00;96.10
25963;DHT22;13760;52.588;13.406;2023-06-24T14:09:57;26.00;96.80
25963;DHT22;13760;52.588;13.406;2023-06-24T14:12:23;26.10;97.80
25963;DHT22;13760;52.588;13.406;2023-06-24T14:14:48;26.30;97.80
25963;DHT22;13760;52.588;13.406;2023-06-24T14:17:14;26.50;98.30
25963;DHT22;13760;52.588;13.406;2023-06-24T14:19:40;26.30;94.50
25963;DHT22;13760;52.588;13.406;2023-06-24T14:22:07;26.30;96.10
25963;DHT22;13760;52.588;13.406;2023-06-24T14:24:33;26.30;95.70
25963;DHT22;13760;52.588;13.406;2023-06-24T14:26:58;26.50;96.00
25963;DHT22;13760;52.588;13.406;2023-06-24T14:29:24;26.60;94.90
25963;DHT22;13760;52.588;13.406;2023-06-24T14:31:51;26.60;94.60
25963;DHT22;13760;52.588;13.406;2023-06-24T14:34:17;26.80;94.20
25963;DHT22;13760;52.588;13.406;2023-06-24T14:36:42;26.70;94.20
25963;DHT22;13760;52.588;13.406;2023-06-24T14:39:13;26.70;93.30
25963;DHT22;13760;52.588;13.406;2023-06-24T14:41:39;26.50;93.20
25963;DHT22;13760;52.588;13.406;2023-06-24T14:44:04;26.50;93.60
25963;DHT22;13760;52.588;13.406;2023-06-24T14:46:30;26.40;94.40
25963;DHT22;13760;52.588;13.406;2023-06-24T14:48:55;26.30;94.40
25963;DHT22;13760;52.588;13.406;2023-06-24T14:51:24;26.10;92.90
25963;DHT22;13760;52.588;13.406;2023-06-24T14:53:50;26.00;93.40
25963;DHT22;13760;52.588;13.406;2023-06-24T14:56:15;25.80;93.10
25963;DHT22;13760;52.588;13.406;2023-06-24T14:58:41;25.80;94.70
25963;DHT22;13760;52.588;13.406;2023-06-24T15:01:06;25.70;93.40
25963;DHT22;13760;52.588;13.406;2023-06-24T15:03:32;25.70;94.20
25963;DHT22;13760;52.588;13.406;2023-06-24T15:05:57;25.50;94.00
25963;DHT22;13760;52.588;13.406;2023-06-24T15:08:23;25.40;92.90
25963;DHT22;13760;52.588;13.406;2023-06-24T15:10:50;25.30;93.40
25963;DHT22;13760;52.588;13.406;2023-06-24T15:13:16;25.30;94.50
25963;DHT22;13760;52.588;13.406;2023-06-24T15:15:41;25.30;95.50
25963;DHT22;13760;52.588;13.406;2023-06-24T15:18:07;25.40;95.70
25963;DHT22;13760;52.588;13.406;2023-06-24T15:20:33;25.40;95.60
25963;DHT22;13760;52.588;13.406;2023-06-24T15:22:58;25.40;96.30
25963;DHT22;13760;52.588;13.406;2023-06-24T15:25:24;25.50;97.60
25963;DHT22;13760;52.588;13.406;2023-06-24T15:27:50;25.50;95.80
25963;DHT22;13760;52.588;13.406;2023-06-24T15:30:16;25.50;96.00
25963;DHT22;13760;52.588;13.406;2023-06-24T15:32:41;25.50;94.50
25963;DHT22;13760;52.588;13.406;2023-06-24T15:35:08;25.50;93.60
25963;DHT22;13760;52.588;13.406;2023-06-24T15:37:33;25.50;94.40